Terminal Aerodrome Forecast
Issued by NWS

Current Version | Previous Version | Text Only | Print | Product List | Glossary On
Versions: 1 2 3 4 5 6 7 8 9 10 11 12 13 14 15 16 17 18 19 20 21 22
000
FTUS44 KLZK 211700
TAFLLQ
TAF
KLLQ 211725Z 2118/2218 11005KT P6SM SCT250
     FM220100 13005KT P6SM SCT060 SCT250
     FM220900 16006KT P6SM SCT015 OVC050
      TEMPO 2210/2214 5SM BR BKN015
     FM221500 18009KT P6SM VCSH OVC015=

USA.gov is the U.S. government's official web portal to all federal, state and local government web resources and services.